createdAt,value
2022-12-12T00:03:32.689Z,10.65
2022-12-12T00:06:21.474Z,10.60
2022-12-12T00:09:09.646Z,10.13
2022-12-12T00:11:56.729Z,10.88
2022-12-12T00:14:43.693Z,10.48
2022-12-12T00:17:30.745Z,10.40
2022-12-12T00:20:17.792Z,10.70
2022-12-12T00:23:04.836Z,10.65
2022-12-12T00:26:01.383Z,9.98
2022-12-12T00:28:49.078Z,9.95
2022-12-12T00:31:36.152Z,11.63
2022-12-12T00:34:23.326Z,10.80
2022-12-12T00:37:10.271Z,10.65
2022-12-12T00:39:57.523Z,10.55
2022-12-12T00:42:44.513Z,10.30
2022-12-12T00:45:31.569Z,10.75
2022-12-12T00:48:18.635Z,10.18
2022-12-12T00:51:09.298Z,9.68
2022-12-12T00:53:58.176Z,10.02
2022-12-12T00:56:45.234Z,10.23
2022-12-12T00:59:32.218Z,10.13
2022-12-12T01:02:23.530Z,9.80
2022-12-12T01:05:15.158Z,9.70
2022-12-12T01:08:02.529Z,9.13
2022-12-12T01:10:49.574Z,11.38
2022-12-12T01:13:36.662Z,9.20
2022-12-12T01:16:24.645Z,9.20
2022-12-12T01:19:11.774Z,8.95
2022-12-12T01:21:58.856Z,9.52
2022-12-12T01:24:45.866Z,9.13
2022-12-12T01:27:32.972Z,8.68
2022-12-12T01:30:22.696Z,8.27
2022-12-12T01:33:09.704Z,8.23
2022-12-12T01:35:57.069Z,8.77
2022-12-12T01:38:48.629Z,8.10
2022-12-12T01:41:36.181Z,8.43
2022-12-12T01:44:46.152Z,8.02
2022-12-12T01:47:33.265Z,7.88
2022-12-12T01:50:20.455Z,7.97
2022-12-12T01:53:08.084Z,7.35
2022-12-12T01:55:55.960Z,8.23
2022-12-12T01:58:45.980Z,8.40
2022-12-12T02:01:33.586Z,7.65
2022-12-12T02:04:22.433Z,8.88
2022-12-12T02:07:09.730Z,7.65
2022-12-12T02:09:56.782Z,7.72
2022-12-12T02:12:44.106Z,8.05
2022-12-12T02:15:41.551Z,8.05
2022-12-12T02:18:46.868Z,8.20
2022-12-12T02:21:37.006Z,8.10
2022-12-12T02:27:28.362Z,7.93
2022-12-12T02:30:19.476Z,7.85
2022-12-12T02:33:24.929Z,8.30
2022-12-12T02:36:23.693Z,8.00
2022-12-12T02:39:37.669Z,7.72
2022-12-12T02:42:37.164Z,7.93
2022-12-12T02:45:30.108Z,8.30
2022-12-12T02:48:54.829Z,8.13
2022-12-12T02:51:44.484Z,8.73
2022-12-12T02:54:31.661Z,8.15
2022-12-12T02:57:22.195Z,9.20
2022-12-12T03:00:13.686Z,8.20
2022-12-12T03:03:34.355Z,8.70
2022-12-12T03:06:51.981Z,7.72
2022-12-12T03:09:57.587Z,9.00
2022-12-12T03:13:22.148Z,8.40
2022-12-12T03:16:27.479Z,7.82
2022-12-12T03:19:29.231Z,8.52
2022-12-12T03:22:43.830Z,8.82
2022-12-12T03:25:43.921Z,9.02
2022-12-12T03:28:39.817Z,8.73
2022-12-12T03:31:31.605Z,8.43
2022-12-12T03:34:26.456Z,8.55
2022-12-12T03:37:20.715Z,9.18
2022-12-12T03:40:24.970Z,9.45
2022-12-12T03:43:19.548Z,10.00
2022-12-12T03:46:15.825Z,8.98
2022-12-12T03:49:34.687Z,9.88
2022-12-12T03:52:30.977Z,9.38
2022-12-12T03:55:36.204Z,9.18
2022-12-12T03:58:43.352Z,9.23
2022-12-12T04:01:51.294Z,9.52
2022-12-12T04:04:48.319Z,9.40
2022-12-12T04:07:44.116Z,10.40
2022-12-12T04:10:57.455Z,8.98
2022-12-12T04:14:02.719Z,8.52
2022-12-12T04:17:00.851Z,9.98
2022-12-12T04:20:12.569Z,9.23
2022-12-12T04:23:16.099Z,10.18
2022-12-12T04:26:35.531Z,8.85
2022-12-12T04:29:26.579Z,10.07
2022-12-12T04:32:31.958Z,9.27
2022-12-12T04:35:18.929Z,8.98
2022-12-12T04:38:09.942Z,10.20
2022-12-12T04:40:59.334Z,9.60
2022-12-12T04:43:49.176Z,10.40
2022-12-12T04:46:38.289Z,9.88
2022-12-12T04:49:29.347Z,9.68
2022-12-12T04:52:18.715Z,9.68
2022-12-12T04:55:19.146Z,10.70
2022-12-12T04:58:07.481Z,10.13
2022-12-12T05:01:03.905Z,9.88
2022-12-12T05:03:55.694Z,9.77
2022-12-12T05:06:48.770Z,10.35
2022-12-12T05:09:37.155Z,9.23
2022-12-12T05:12:24.294Z,10.23
2022-12-12T05:15:12.086Z,10.27
2022-12-12T05:18:03.227Z,10.30
2022-12-12T05:20:50.654Z,10.70
2022-12-12T05:23:37.701Z,9.90
2022-12-12T05:26:27.521Z,10.15
2022-12-12T05:29:14.481Z,10.45
2022-12-12T05:32:01.541Z,10.48
2022-12-12T05:34:48.639Z,9.55
2022-12-12T05:37:36.351Z,11.05
2022-12-12T05:40:23.360Z,10.23
2022-12-12T05:43:10.410Z,9.32
2022-12-12T05:45:58.023Z,9.43
2022-12-12T05:48:50.423Z,10.13
2022-12-12T05:51:37.444Z,9.90
2022-12-12T05:54:24.463Z,10.00
2022-12-12T05:57:11.572Z,11.38
2022-12-12T05:59:58.592Z,10.20
2022-12-12T06:02:45.846Z,9.98
2022-12-12T06:05:32.989Z,10.88
2022-12-12T06:08:24.843Z,9.90
2022-12-12T06:11:12.727Z,10.18
2022-12-12T06:13:59.898Z,9.68
2022-12-12T06:16:46.968Z,10.45
2022-12-12T06:19:33.988Z,12.82
2022-12-12T06:22:21.059Z,9.95
2022-12-12T06:25:11.166Z,12.75
2022-12-12T06:28:00.213Z,10.65
2022-12-12T06:30:47.267Z,10.30
2022-12-12T06:33:35.812Z,11.05
2022-12-12T06:36:24.542Z,12.07
2022-12-12T06:39:11.617Z,36.17
2022-12-12T06:41:58.765Z,12.40
2022-12-12T06:44:45.886Z,10.73
2022-12-12T06:47:33.085Z,11.98
2022-12-12T06:50:23.691Z,11.63
2022-12-12T06:53:11.801Z,11.13
2022-12-12T06:55:58.908Z,11.90
2022-12-12T06:58:46.776Z,11.27
2022-12-12T07:01:33.946Z,12.20
2022-12-12T07:04:21.127Z,11.20
2022-12-12T07:07:08.259Z,10.85
2022-12-12T07:09:55.862Z,12.88
2022-12-12T07:12:46.628Z,12.68
2022-12-12T07:15:34.864Z,12.77
2022-12-12T07:18:22.058Z,11.88
2022-12-12T07:21:12.886Z,11.98
2022-12-12T07:23:59.949Z,11.43
2022-12-12T07:26:46.997Z,11.82
2022-12-12T07:29:34.554Z,12.70
2022-12-12T07:32:21.648Z,11.43
2022-12-12T07:35:09.132Z,11.48
2022-12-12T07:37:56.792Z,11.30
2022-12-12T07:40:43.788Z,10.98
2022-12-12T07:43:33.207Z,10.48
2022-12-12T07:46:24.042Z,11.15
2022-12-12T07:49:11.374Z,10.80
2022-12-12T07:51:58.549Z,11.13
2022-12-12T07:54:45.633Z,10.65
2022-12-12T07:57:33.096Z,11.20
2022-12-12T08:00:20.508Z,11.50
2022-12-12T08:03:07.528Z,12.38
2022-12-12T08:05:54.610Z,11.18
2022-12-12T08:08:41.809Z,11.95
2022-12-12T08:11:28.884Z,11.82
2022-12-12T08:14:16.045Z,11.18
2022-12-12T08:17:03.562Z,10.75
2022-12-12T08:19:51.328Z,12.10
2022-12-12T08:22:38.412Z,11.40
2022-12-12T08:25:25.455Z,10.73
2022-12-12T08:28:12.760Z,11.60
2022-12-12T08:30:59.867Z,11.13
2022-12-12T08:33:47.817Z,11.10
2022-12-12T08:36:35.920Z,11.38
2022-12-12T08:39:23.042Z,11.07
2022-12-12T08:42:10.047Z,11.25
2022-12-12T08:44:57.126Z,10.18
2022-12-12T08:47:44.165Z,9.70
2022-12-12T08:50:31.339Z,10.15
2022-12-12T08:53:18.408Z,9.80
2022-12-12T08:56:05.854Z,9.98
2022-12-12T08:58:53.059Z,10.60
2022-12-12T09:01:40.732Z,10.48
2022-12-12T09:04:27.867Z,9.48
2022-12-12T09:07:14.915Z,10.25
2022-12-12T09:10:02.519Z,9.00
2022-12-12T09:12:49.582Z,9.88
2022-12-12T09:15:38.161Z,9.85
2022-12-12T09:18:25.347Z,9.27
2022-12-12T09:21:12.355Z,9.02
2022-12-12T09:23:59.466Z,8.52
2022-12-12T09:26:46.564Z,8.85
2022-12-12T09:29:33.663Z,9.43
2022-12-12T09:32:24.765Z,8.55
2022-12-12T09:35:12.501Z,9.05
2022-12-12T09:37:59.799Z,8.60
2022-12-12T09:40:54.988Z,8.48
2022-12-12T09:44:03.207Z,7.82
2022-12-12T09:46:51.634Z,8.63
2022-12-12T09:49:51.201Z,8.48
2022-12-12T09:52:38.736Z,8.70
2022-12-12T09:55:43.705Z,9.00
2022-12-12T09:58:36.318Z,9.85
2022-12-12T10:01:34.279Z,9.35
2022-12-12T10:04:50.991Z,10.10
2022-12-12T10:07:59.433Z,9.65
2022-12-12T10:10:52.276Z,10.15
2022-12-12T10:13:39.726Z,10.70
2022-12-12T10:16:28.822Z,10.73
2022-12-12T10:19:27.842Z,12.27
2022-12-12T10:22:50.888Z,10.75
2022-12-12T10:25:49.979Z,10.20
2022-12-12T10:28:37.000Z,10.90
2022-12-12T10:31:35.971Z,9.85
2022-12-12T10:34:44.815Z,9.77
2022-12-12T10:37:38.727Z,9.50
2022-12-12T10:40:47.252Z,8.75
2022-12-12T10:43:42.988Z,9.60
2022-12-12T10:46:58.989Z,9.18
2022-12-12T10:49:46.091Z,9.32
2022-12-12T10:52:33.731Z,9.50
2022-12-12T10:55:44.029Z,9.30
2022-12-12T10:58:40.700Z,9.60
2022-12-12T11:02:08.599Z,9.73
2022-12-12T11:04:45.628Z,10.90
2022-12-12T11:07:40.892Z,7.70
2022-12-12T11:10:34.823Z,10.20
2022-12-12T11:13:21.965Z,10.50
2022-12-12T11:16:15.637Z,9.80
2022-12-12T11:19:16.987Z,10.25
2022-12-12T11:22:04.942Z,9.52
2022-12-12T11:24:53.116Z,10.80
2022-12-12T11:27:41.651Z,10.07
2022-12-12T11:30:43.019Z,10.20
2022-12-12T11:33:38.442Z,10.60
2022-12-12T11:36:36.208Z,9.85
2022-12-12T11:39:28.905Z,9.70
2022-12-12T11:42:15.916Z,10.07
2022-12-12T11:45:09.024Z,11.80
2022-12-12T11:47:56.047Z,9.85
2022-12-12T11:50:46.637Z,9.77
2022-12-12T11:53:38.540Z,9.45
2022-12-12T11:56:44.230Z,10.10
2022-12-12T11:59:46.166Z,8.57
2022-12-12T12:03:07.205Z,9.57
2022-12-12T12:06:15.675Z,8.93
2022-12-12T12:09:02.767Z,10.52
2022-12-12T12:12:37.327Z,9.82
2022-12-12T12:16:01.840Z,8.57
2022-12-12T12:18:58.563Z,9.48
2022-12-12T12:22:13.246Z,9.38
2022-12-12T12:25:21.629Z,9.80
2022-12-12T12:28:23.857Z,9.70
2022-12-12T12:31:20.307Z,10.75
2022-12-12T12:34:30.417Z,10.95
2022-12-12T12:37:51.920Z,9.43
2022-12-12T12:40:41.599Z,9.73
2022-12-12T12:43:47.931Z,9.98
2022-12-12T12:46:58.493Z,10.70
2022-12-12T12:50:02.008Z,10.88
2022-12-12T12:52:57.201Z,10.30
2022-12-12T12:55:51.107Z,10.02
2022-12-12T12:58:44.929Z,9.50
2022-12-12T13:01:42.796Z,9.70
2022-12-12T13:04:37.211Z,10.27
2022-12-12T13:07:48.432Z,8.40
2022-12-12T13:10:41.129Z,8.32
2022-12-12T13:13:34.500Z,9.32
2022-12-12T13:16:26.340Z,9.32
2022-12-12T13:19:31.715Z,10.15
2022-12-12T13:22:30.273Z,10.32
2022-12-12T13:25:28.876Z,10.05
2022-12-12T13:28:20.248Z,9.68
2022-12-12T13:31:27.311Z,10.48
2022-12-12T13:34:23.361Z,10.80
2022-12-12T13:37:17.424Z,10.60
2022-12-12T13:40:08.147Z,10.65
2022-12-12T13:42:55.180Z,10.25
2022-12-12T13:45:44.482Z,11.40
2022-12-12T13:48:46.567Z,8.82
2022-12-12T13:51:40.835Z,9.77
2022-12-12T13:54:27.972Z,10.57
2022-12-12T13:57:26.162Z,9.98
2022-12-12T14:00:18.094Z,10.02
2022-12-12T14:03:10.921Z,10.65
2022-12-12T14:06:10.815Z,9.85
2022-12-12T14:08:58.768Z,9.02
2022-12-12T14:11:46.017Z,9.43
2022-12-12T14:14:36.745Z,9.93
2022-12-12T14:17:26.914Z,9.45
2022-12-12T14:23:29.220Z,9.23
2022-12-12T14:26:28.724Z,9.05
2022-12-12T14:29:15.777Z,8.07
2022-12-12T14:32:06.143Z,8.70
2022-12-12T14:35:09.460Z,8.80
2022-12-12T14:38:18.019Z,8.95
2022-12-12T14:41:13.518Z,8.35
2022-12-12T14:44:35.640Z,7.93
2022-12-12T14:47:16.417Z,8.35
2022-12-12T14:50:11.312Z,8.77
2022-12-12T14:52:59.010Z,8.70
2022-12-12T14:55:52.721Z,8.43
2022-12-12T14:58:56.548Z,8.30
2022-12-12T15:01:53.633Z,8.57
2022-12-12T15:04:44.438Z,7.85
2022-12-12T15:07:39.147Z,7.93
2022-12-12T15:10:30.937Z,8.40
2022-12-12T15:13:21.285Z,8.85
2022-12-12T15:16:08.539Z,8.85
2022-12-12T15:18:57.496Z,8.98
2022-12-12T15:21:46.301Z,8.43
2022-12-12T15:24:38.461Z,7.70
2022-12-12T15:27:34.093Z,7.70
2022-12-12T15:30:37.612Z,6.60
2022-12-12T15:33:26.955Z,7.03
2022-12-12T15:36:28.055Z,7.97
2022-12-12T15:39:17.135Z,7.22
2022-12-12T15:42:05.193Z,8.13
2022-12-12T15:44:52.450Z,7.93
2022-12-12T15:47:39.573Z,8.30
2022-12-12T15:50:41.778Z,8.45
2022-12-12T15:53:50.344Z,8.15
2022-12-12T15:56:37.388Z,8.00
2022-12-12T15:59:32.460Z,8.75
2022-12-12T16:02:26.256Z,8.60
2022-12-12T16:05:19.386Z,8.32
2022-12-12T16:08:32.203Z,8.85
2022-12-12T16:11:38.296Z,8.82
2022-12-12T16:14:27.239Z,8.40
2022-12-12T16:17:22.137Z,9.05
2022-12-12T16:20:14.659Z,8.77
2022-12-12T16:23:28.388Z,9.07
2022-12-12T16:26:15.371Z,9.18
2022-12-12T16:29:04.060Z,9.35
2022-12-12T16:31:51.749Z,9.02
2022-12-12T16:34:38.793Z,9.68
2022-12-12T16:37:25.842Z,8.77
2022-12-12T16:40:15.031Z,8.85
2022-12-12T16:43:09.363Z,9.27
2022-12-12T16:45:58.458Z,8.48
2022-12-12T16:48:45.675Z,10.20
2022-12-12T16:51:35.305Z,9.45
2022-12-12T16:54:22.475Z,9.70
2022-12-12T16:57:09.621Z,9.45
2022-12-12T16:59:56.747Z,10.00
2022-12-12T17:02:44.413Z,9.70
2022-12-12T17:05:32.637Z,11.32
2022-12-12T17:08:19.913Z,9.23
2022-12-12T17:11:09.501Z,9.25
2022-12-12T17:13:57.914Z,9.82
2022-12-12T17:16:45.092Z,9.60
2022-12-12T17:19:32.716Z,8.88
2022-12-12T17:22:19.804Z,9.02
2022-12-12T17:25:08.425Z,9.95
2022-12-12T17:27:55.623Z,9.15
2022-12-12T17:30:43.423Z,9.65
2022-12-12T17:33:30.660Z,10.38
2022-12-12T17:36:18.801Z,9.32
2022-12-12T17:39:06.001Z,9.75
2022-12-12T17:41:53.368Z,9.60
2022-12-12T17:44:40.480Z,10.50
2022-12-12T17:47:30.371Z,9.77
2022-12-12T17:50:17.996Z,10.18
2022-12-12T17:53:05.234Z,10.55
2022-12-12T17:56:01.260Z,9.63
2022-12-12T17:58:55.804Z,10.02
2022-12-12T18:01:43.323Z,9.55
2022-12-12T18:04:37.138Z,10.10
2022-12-12T18:07:24.761Z,10.02
2022-12-12T18:10:12.658Z,9.63
2022-12-12T18:13:01.599Z,9.48
2022-12-12T18:15:59.703Z,10.95
2022-12-12T18:18:47.308Z,10.40
2022-12-12T18:22:00.418Z,11.13
2022-12-12T18:24:48.574Z,9.82
2022-12-12T18:27:38.159Z,10.88
2022-12-12T18:30:25.885Z,9.18
2022-12-12T18:33:13.483Z,10.75
2022-12-12T18:36:10.108Z,11.38
2022-12-12T18:38:59.844Z,10.85
2022-12-12T18:41:47.298Z,11.38
2022-12-12T18:44:34.710Z,10.88
2022-12-12T18:47:24.398Z,12.10
2022-12-12T18:50:12.482Z,12.43
2022-12-12T18:53:00.877Z,13.32
2022-12-12T18:55:48.229Z,10.82
2022-12-12T18:58:37.002Z,11.32
2022-12-12T19:01:27.423Z,11.55
2022-12-12T19:04:21.194Z,11.93
2022-12-12T19:07:12.276Z,12.27
2022-12-12T19:10:02.876Z,12.53
2022-12-12T19:12:50.808Z,11.93
2022-12-12T19:15:38.837Z,12.00
2022-12-12T19:18:26.251Z,11.07
2022-12-12T19:21:20.362Z,11.13
2022-12-12T19:24:10.858Z,12.38
2022-12-12T19:26:58.407Z,12.05
2022-12-12T19:29:49.170Z,10.75
2022-12-12T19:32:37.000Z,11.20
2022-12-12T19:35:25.167Z,11.38
2022-12-12T19:38:13.090Z,11.77
2022-12-12T19:41:07.949Z,12.02
2022-12-12T19:44:00.161Z,11.07
2022-12-12T19:46:48.221Z,11.30
2022-12-12T19:49:36.226Z,11.40
2022-12-12T19:52:24.293Z,11.13
2022-12-12T19:55:12.087Z,11.23
2022-12-12T19:58:01.059Z,12.75
2022-12-12T20:00:51.148Z,11.95
2022-12-12T20:03:39.178Z,12.35
2022-12-12T20:06:28.995Z,12.18
2022-12-12T20:09:23.179Z,11.80
2022-12-12T20:12:11.269Z,12.43
2022-12-12T20:15:00.833Z,11.38
2022-12-12T20:17:48.779Z,13.02
2022-12-12T20:20:36.071Z,12.55
2022-12-12T20:23:24.097Z,12.55
2022-12-12T20:26:17.638Z,12.25
2022-12-12T20:29:07.428Z,12.13
2022-12-12T20:31:55.371Z,12.02
2022-12-12T20:34:43.315Z,11.65
2022-12-12T20:37:32.440Z,12.90
2022-12-12T20:40:20.259Z,12.43
2022-12-12T20:43:10.642Z,12.95
2022-12-12T20:46:02.662Z,12.23
2022-12-12T20:48:51.288Z,12.25
2022-12-12T20:51:55.205Z,12.80
2022-12-12T20:54:44.179Z,13.00
2022-12-12T20:57:32.962Z,13.23
2022-12-12T21:00:20.899Z,12.73
2022-12-12T21:03:08.358Z,14.73
2022-12-12T21:05:55.478Z,13.10
2022-12-12T21:08:42.863Z,14.25
2022-12-12T21:11:30.593Z,13.32
2022-12-12T21:14:18.568Z,12.93
2022-12-12T21:17:06.037Z,13.52
2022-12-12T21:19:53.346Z,15.23
2022-12-12T21:22:40.534Z,13.38
2022-12-12T21:25:27.740Z,14.13
2022-12-12T21:28:14.914Z,14.35
2022-12-12T21:31:02.008Z,19.88
2022-12-12T21:33:49.154Z,13.75
2022-12-12T21:36:36.319Z,13.65
2022-12-12T21:39:26.880Z,16.02
2022-12-12T21:42:14.433Z,15.05
2022-12-12T21:45:01.471Z,14.20
2022-12-12T21:47:48.542Z,14.35
2022-12-12T21:50:37.622Z,14.25
2022-12-12T21:53:37.892Z,13.82
2022-12-12T21:56:24.960Z,13.50
2022-12-12T21:59:13.538Z,14.45
2022-12-12T22:02:00.930Z,13.50
2022-12-12T22:04:48.119Z,13.15
2022-12-12T22:07:35.317Z,13.40
2022-12-12T22:10:22.411Z,14.07
2022-12-12T22:13:09.452Z,13.80
2022-12-12T22:16:01.245Z,12.43
2022-12-12T22:18:50.363Z,12.73
2022-12-12T22:21:37.693Z,13.00
2022-12-12T22:24:26.121Z,12.13
2022-12-12T22:27:13.207Z,13.15
2022-12-12T22:30:00.227Z,12.25
2022-12-12T22:32:47.274Z,14.38
2022-12-12T22:35:34.364Z,13.32
2022-12-12T22:38:21.438Z,13.35
2022-12-12T22:41:08.758Z,12.55
2022-12-12T22:44:00.924Z,13.05
2022-12-12T22:46:49.992Z,14.18
2022-12-12T22:49:37.126Z,13.90
2022-12-12T22:52:25.577Z,13.52
2022-12-12T22:55:12.888Z,12.73
2022-12-12T22:58:00.202Z,13.32
2022-12-12T23:00:47.331Z,13.25
2022-12-12T23:03:34.637Z,13.82
2022-12-12T23:06:32.986Z,12.85
2022-12-12T23:09:22.700Z,12.90
2022-12-12T23:12:09.771Z,12.40
2022-12-12T23:14:56.838Z,12.95
2022-12-12T23:17:43.906Z,12.25
2022-12-12T23:20:31.002Z,13.65
2022-12-12T23:23:18.038Z,13.35
2022-12-12T23:26:10.429Z,12.35
2022-12-12T23:28:59.242Z,12.27
2022-12-12T23:31:47.259Z,12.95
2022-12-12T23:34:34.709Z,13.15
2022-12-12T23:37:22.040Z,12.65
2022-12-12T23:40:09.973Z,11.60
2022-12-12T23:42:57.040Z,12.00
2022-12-12T23:45:44.318Z,12.65
2022-12-12T23:48:32.332Z,12.65
2022-12-12T23:51:19.370Z,12.68
2022-12-12T23:54:09.971Z,12.18
2022-12-12T23:56:57.043Z,11.68
2022-12-12T23:59:44.134Z,12.68
